sensor_id;sensor_type;location;lat;lon;timestamp;pressure;altitude;pressure_sealevel;temperature;humidity
43818;BME280;29868;47.360;18.984;2023-05-21T13:41:05;100245.59;;;28.72;38.06
43818;BME280;29868;47.360;18.984;2023-05-21T13:43:31;100236.56;;;28.59;37.80
43818;BME280;29868;47.360;18.984;2023-05-21T13:45:56;100232.50;;;28.53;38.94
43818;BME280;29868;47.360;18.984;2023-05-21T13:48:22;100227.22;;;28.66;39.88
43818;BME280;29868;47.360;18.984;2023-05-21T13:50:47;100226.88;;;29.01;39.72
43818;BME280;29868;47.360;18.984;2023-05-21T13:53:12;100229.16;;;28.64;39.81
43818;BME280;29868;47.360;18.984;2023-05-21T13:55:38;100231.41;;;28.56;39.04
43818;BME280;29868;47.360;18.984;2023-05-21T13:58:03;100227.97;;;28.40;40.74
43818;BME280;29868;47.360;18.984;2023-05-21T14:00:29;100228.66;;;28.86;40.88
43818;BME280;29868;47.360;18.984;2023-05-21T14:02:54;100224.47;;;28.96;40.64
43818;BME280;29868;47.360;18.984;2023-05-21T14:05:22;100224.94;;;28.74;40.50
43818;BME280;29868;47.360;18.984;2023-05-21T14:07:48;100224.31;;;28.99;41.08
43818;BME280;29868;47.360;18.984;2023-05-21T14:10:13;100226.88;;;29.01;39.92
43818;BME280;29868;47.360;18.984;2023-05-21T14:12:39;100227.44;;;28.92;39.52
43818;BME280;29868;47.360;18.984;2023-05-21T14:15:10;100227.06;;;28.98;41.62
43818;BME280;29868;47.360;18.984;2023-05-21T14:17:39;100222.19;;;28.76;37.93
43818;BME280;29868;47.360;18.984;2023-05-21T14:20:06;100221.13;;;28.78;38.79
43818;BME280;29868;47.360;18.984;2023-05-21T14:22:32;100220.53;;;28.59;39.29
43818;BME280;29868;47.360;18.984;2023-05-21T14:24:57;100211.19;;;28.66;40.24
43818;BME280;29868;47.360;18.984;2023-05-21T14:27:23;100207.00;;;28.62;41.13
43818;BME280;29868;47.360;18.984;2023-05-21T14:29:48;100215.78;;;28.78;39.23
43818;BME280;29868;47.360;18.984;2023-05-21T14:32:14;100210.66;;;28.75;39.82
43818;BME280;29868;47.360;18.984;2023-05-21T14:34:40;100214.16;;;28.61;40.23
43818;BME280;29868;47.360;18.984;2023-05-21T14:37:05;100207.56;;;28.67;41.90
43818;BME280;29868;47.360;18.984;2023-05-21T14:39:31;100207.59;;;28.23;41.98
43818;BME280;29868;47.360;18.984;2023-05-21T14:41:56;100200.97;;;28.14;42.26
43818;BME280;29868;47.360;18.984;2023-05-21T14:44:21;100209.13;;;28.27;42.53
43818;BME280;29868;47.360;18.984;2023-05-21T14:46:50;100203.41;;;28.19;42.61
43818;BME280;29868;47.360;18.984;2023-05-21T14:49:15;100213.34;;;28.01;40.89
43818;BME280;29868;47.360;18.984;2023-05-21T14:51:41;100208.56;;;27.60;41.17
43818;BME280;29868;47.360;18.984;2023-05-21T14:54:07;100201.78;;;27.38;41.71
43818;BME280;29868;47.360;18.984;2023-05-21T14:56:33;100197.66;;;27.49;42.56
43818;BME280;29868;47.360;18.984;2023-05-21T14:58:58;100201.16;;;27.65;42.22
43818;BME280;29868;47.360;18.984;2023-05-21T15:01:24;100201.59;;;27.73;42.77
43818;BME280;29868;47.360;18.984;2023-05-21T15:03:49;100191.84;;;27.88;42.98
43818;BME280;29868;47.360;18.984;2023-05-21T15:06:15;100195.88;;;27.95;42.33
43818;BME280;29868;47.360;18.984;2023-05-21T15:08:41;100191.44;;;28.10;42.79
43818;BME280;29868;47.360;18.984;2023-05-21T15:11:06;100187.22;;;28.06;43.45
43818;BME280;29868;47.360;18.984;2023-05-21T15:13:34;100181.88;;;28.06;43.24
43818;BME280;29868;47.360;18.984;2023-05-21T15:15:59;100191.03;;;28.02;41.81
43818;BME280;29868;47.360;18.984;2023-05-21T15:18:25;100186.66;;;28.01;41.30
43818;BME280;29868;47.360;18.984;2023-05-21T15:20:50;100186.47;;;28.04;42.62
43818;BME280;29868;47.360;18.984;2023-05-21T15:23:16;100188.19;;;28.05;42.64
43818;BME280;29868;47.360;18.984;2023-05-21T15:25:41;100190.81;;;27.91;41.59
43818;BME280;29868;47.360;18.984;2023-05-21T15:28:07;100182.91;;;27.89;42.69
43818;BME280;29868;47.360;18.984;2023-05-21T15:30:32;100189.63;;;27.80;41.05
43818;BME280;29868;47.360;18.984;2023-05-21T15:32:58;100201.34;;;27.62;41.88
43818;BME280;29868;47.360;18.984;2023-05-21T15:35:23;100187.09;;;27.47;41.45
43818;BME280;29868;47.360;18.984;2023-05-21T15:37:49;100190.25;;;27.70;42.16
43818;BME280;29868;47.360;18.984;2023-05-21T15:40:14;100186.38;;;27.59;43.70
43818;BME280;29868;47.360;18.984;2023-05-21T15:42:40;100184.03;;;27.53;43.64
43818;BME280;29868;47.360;18.984;2023-05-21T15:45:05;100186.09;;;27.64;44.62
43818;BME280;29868;47.360;18.984;2023-05-21T15:47:31;100187.22;;;27.60;45.00
43818;BME280;29868;47.360;18.984;2023-05-21T15:49:56;100192.75;;;27.57;43.33
43818;BME280;29868;47.360;18.984;2023-05-21T15:52:23;100187.59;;;27.38;42.02
43818;BME280;29868;47.360;18.984;2023-05-21T15:54:49;100189.50;;;27.36;43.03
43818;BME280;29868;47.360;18.984;2023-05-21T15:57:17;100184.25;;;27.34;43.57
43818;BME280;29868;47.360;18.984;2023-05-21T15:59:42;100188.28;;;27.41;42.82
43818;BME280;29868;47.360;18.984;2023-05-21T16:02:08;100186.22;;;27.47;42.10
43818;BME280;29868;47.360;18.984;2023-05-21T16:04:34;100185.00;;;27.52;43.73
43818;BME280;29868;47.360;18.984;2023-05-21T16:07:00;100190.16;;;27.55;44.52
43818;BME280;29868;47.360;18.984;2023-05-21T16:09:25;100193.28;;;27.48;43.70
43818;BME280;29868;47.360;18.984;2023-05-21T16:11:51;100190.94;;;27.41;43.34
43818;BME280;29868;47.360;18.984;2023-05-21T16:14:16;100189.41;;;27.37;43.21
43818;BME280;29868;47.360;18.984;2023-05-21T16:16:42;100192.41;;;27.31;42.19
43818;BME280;29868;47.360;18.984;2023-05-21T16:19:07;100188.91;;;27.15;41.90
43818;BME280;29868;47.360;18.984;2023-05-21T16:21:33;100187.34;;;27.11;43.22
43818;BME280;29868;47.360;18.984;2023-05-21T16:23:58;100183.56;;;27.15;43.48
43818;BME280;29868;47.360;18.984;2023-05-21T16:26:24;100191.47;;;27.32;44.10
43818;BME280;29868;47.360;18.984;2023-05-21T16:28:50;100193.19;;;27.17;44.33
43818;BME280;29868;47.360;18.984;2023-05-21T16:31:15;100196.53;;;27.05;44.58
43818;BME280;29868;47.360;18.984;2023-05-21T16:33:41;100186.34;;;26.96;45.52
43818;BME280;29868;47.360;18.984;2023-05-21T16:36:06;100197.66;;;26.68;46.19
43818;BME280;29868;47.360;18.984;2023-05-21T16:38:34;100198.25;;;26.73;47.52
43818;BME280;29868;47.360;18.984;2023-05-21T16:41:00;100198.50;;;26.53;47.71
43818;BME280;29868;47.360;18.984;2023-05-21T16:43:25;100200.13;;;26.38;47.88
43818;BME280;29868;47.360;18.984;2023-05-21T16:45:51;100195.19;;;26.48;48.17
43818;BME280;29868;47.360;18.984;2023-05-21T16:48:17;100202.41;;;26.46;48.46
43818;BME280;29868;47.360;18.984;2023-05-21T16:50:43;100197.00;;;26.47;48.54
43818;BME280;29868;47.360;18.984;2023-05-21T16:53:08;100198.22;;;26.40;48.96
43818;BME280;29868;47.360;18.984;2023-05-21T16:55:36;100202.94;;;26.35;50.54
43818;BME280;29868;47.360;18.984;2023-05-21T16:58:03;100204.44;;;26.40;48.96
43818;BME280;29868;47.360;18.984;2023-05-21T17:00:28;100203.53;;;26.40;49.65
43818;BME280;29868;47.360;18.984;2023-05-21T17:02:54;100204.25;;;26.43;49.08
43818;BME280;29868;47.360;18.984;2023-05-21T17:05:20;100211.88;;;26.16;48.99
43818;BME280;29868;47.360;18.984;2023-05-21T17:07:46;100212.13;;;26.12;49.52
43818;BME280;29868;47.360;18.984;2023-05-21T17:10:12;100213.31;;;25.70;50.45
43818;BME280;29868;47.360;18.984;2023-05-21T17:12:37;100211.88;;;25.63;49.91
43818;BME280;29868;47.360;18.984;2023-05-21T17:15:03;100212.34;;;25.54;51.29
43818;BME280;29868;47.360;18.984;2023-05-21T17:17:29;100223.28;;;25.29;52.09
43818;BME280;29868;47.360;18.984;2023-05-21T17:19:54;100222.28;;;25.12;52.98
43818;BME280;29868;47.360;18.984;2023-05-21T17:22:20;100215.22;;;25.11;53.67
43818;BME280;29868;47.360;18.984;2023-05-21T17:24:45;100217.28;;;24.86;53.84
43818;BME280;29868;47.360;18.984;2023-05-21T17:27:11;100213.59;;;24.88;54.83
43818;BME280;29868;47.360;18.984;2023-05-21T17:29:37;100219.72;;;24.90;54.74
43818;BME280;29868;47.360;18.984;2023-05-21T17:32:03;100219.06;;;24.85;55.20
43818;BME280;29868;47.360;18.984;2023-05-21T17:34:28;100213.47;;;24.91;55.35
43818;BME280;29868;47.360;18.984;2023-05-21T17:36:55;100214.28;;;24.73;57.04
43818;BME280;29868;47.360;18.984;2023-05-21T17:39:21;100219.31;;;24.60;57.10
43818;BME280;29868;47.360;18.984;2023-05-21T17:41:46;100215.66;;;24.42;58.22
43818;BME280;29868;47.360;18.984;2023-05-21T17:44:12;100208.06;;;24.13;59.90
43818;BME280;29868;47.360;18.984;2023-05-21T17:46:38;100214.84;;;23.99;60.05
43818;BME280;29868;47.360;18.984;2023-05-21T17:49:03;100212.63;;;23.89;60.26
43818;BME280;29868;47.360;18.984;2023-05-21T17:51:31;100207.13;;;23.71;61.64
43818;BME280;29868;47.360;18.984;2023-05-21T17:53:57;100210.47;;;23.54;62.66
43818;BME280;29868;47.360;18.984;2023-05-21T17:56:22;100210.44;;;23.33;63.26
43818;BME280;29868;47.360;18.984;2023-05-21T17:58:48;100204.66;;;23.23;64.93
43818;BME280;29868;47.360;18.984;2023-05-21T18:01:14;100201.78;;;23.05;65.76
43818;BME280;29868;47.360;18.984;2023-05-21T18:03:40;100195.72;;;22.78;68.07
43818;BME280;29868;47.360;18.984;2023-05-21T18:06:05;100198.19;;;22.59;68.36
43818;BME280;29868;47.360;18.984;2023-05-21T18:08:31;100194.72;;;22.57;68.96
43818;BME280;29868;47.360;18.984;2023-05-21T18:10:56;100187.50;;;22.38;71.07
43818;BME280;29868;47.360;18.984;2023-05-21T18:13:22;100191.03;;;22.11;73.43
43818;BME280;29868;47.360;18.984;2023-05-21T18:15:48;100185.97;;;21.79;76.05
43818;BME280;29868;47.360;18.984;2023-05-21T18:18:13;100183.69;;;21.68;76.14
43818;BME280;29868;47.360;18.984;2023-05-21T18:20:43;100183.72;;;21.67;77.20
43818;BME280;29868;47.360;18.984;2023-05-21T18:23:09;100188.22;;;21.65;80.02
43818;BME280;29868;47.360;18.984;2023-05-21T18:25:36;100183.47;;;21.74;78.33
43818;BME280;29868;47.360;18.984;2023-05-21T18:28:01;100186.88;;;21.78;78.46
43818;BME280;29868;47.360;18.984;2023-05-21T18:30:27;100192.06;;;21.81;77.92
43818;BME280;29868;47.360;18.984;2023-05-21T18:32:53;100190.03;;;21.62;79.69
43818;BME280;29868;47.360;18.984;2023-05-21T18:35:18;100186.31;;;21.42;82.50
43818;BME280;29868;47.360;18.984;2023-05-21T18:37:43;100198.03;;;21.31;83.76
43818;BME280;29868;47.360;18.984;2023-05-21T18:40:11;100194.78;;;21.23;84.64
43818;BME280;29868;47.360;18.984;2023-05-21T18:42:37;100206.75;;;21.05;86.14
43818;BME280;29868;47.360;18.984;2023-05-21T18:45:07;100206.41;;;20.88;89.73
43818;BME280;29868;47.360;18.984;2023-05-21T18:47:34;100198.66;;;20.82;92.29
43818;BME280;29868;47.360;18.984;2023-05-21T18:50:00;100204.38;;;20.67;91.88
43818;BME280;29868;47.360;18.984;2023-05-21T18:52:25;100201.16;;;20.55;93.29
43818;BME280;29868;47.360;18.984;2023-05-21T18:54:51;100205.66;;;20.52;97.46
43818;BME280;29868;47.360;18.984;2023-05-21T18:57:17;100211.38;;;20.35;98.28
43818;BME280;29868;47.360;18.984;2023-05-21T18:59:43;100207.41;;;20.18;100.00
43818;BME280;29868;47.360;18.984;2023-05-21T19:02:08;100217.56;;;20.00;100.00
43818;BME280;29868;47.360;18.984;2023-05-21T19:04:33;100212.66;;;19.84;100.00
43818;BME280;29868;47.360;18.984;2023-05-21T19:06:59;100219.97;;;19.73;100.00
43818;BME280;29868;47.360;18.984;2023-05-21T19:09:26;100220.31;;;19.58;100.00
43818;BME280;29868;47.360;18.984;2023-05-21T19:11:52;100214.53;;;19.42;100.00
43818;BME280;29868;47.360;18.984;2023-05-21T19:14:17;100224.44;;;19.31;100.00
43818;BME280;29868;47.360;18.984;2023-05-21T19:16:44;100223.81;;;19.19;100.00
43818;BME280;29868;47.360;18.984;2023-05-21T19:19:10;100213.66;;;19.01;100.00
43818;BME280;29868;47.360;18.984;2023-05-21T19:21:35;100225.22;;;18.94;100.00
43818;BME280;29868;47.360;18.984;2023-05-21T19:24:01;100222.84;;;18.83;100.00
43818;BME280;29868;47.360;18.984;2023-05-21T19:26:26;100224.81;;;18.72;100.00
43818;BME280;29868;47.360;18.984;2023-05-21T19:28:52;100226.59;;;18.68;100.00
43818;BME280;29868;47.360;18.984;2023-05-21T19:31:19;100222.47;;;18.55;100.00
43818;BME280;29868;47.360;18.984;2023-05-21T19:33:44;100220.03;;;18.46;100.00
43818;BME280;29868;47.360;18.984;2023-05-21T19:36:10;100227.19;;;18.38;100.00
43818;BME280;29868;47.360;18.984;2023-05-21T19:38:36;100225.59;;;18.29;100.00
43818;BME280;29868;47.360;18.984;2023-05-21T19:41:03;100230.13;;;18.21;100.00
43818;BME280;29868;47.360;18.984;2023-05-21T19:43:29;100230.97;;;18.21;100.00
43818;BME280;29868;47.360;18.984;2023-05-21T19:45:54;100226.66;;;18.17;100.00
43818;BME280;29868;47.360;18.984;2023-05-21T19:48:20;100222.41;;;18.10;100.00
43818;BME280;29868;47.360;18.984;2023-05-21T19:50:45;100230.38;;;18.06;100.00
43818;BME280;29868;47.360;18.984;2023-05-21T19:53:10;100229.56;;;18.02;100.00
43818;BME280;29868;47.360;18.984;2023-05-21T19:55:36;100224.31;;;18.02;100.00
43818;BME280;29868;47.360;18.984;2023-05-21T19:58:02;100228.88;;;17.92;100.00
43818;BME280;29868;47.360;18.984;2023-05-21T20:00:27;100231.66;;;17.80;100.00
43818;BME280;29868;47.360;18.984;2023-05-21T20:02:54;100235.31;;;17.70;100.00
43818;BME280;29868;47.360;18.984;2023-05-21T20:05:20;100230.16;;;17.64;100.00
43818;BME280;29868;47.360;18.984;2023-05-21T20:07:45;100236.41;;;17.55;100.00
43818;BME280;29868;47.360;18.984;2023-05-21T20:10:11;100232.06;;;17.54;100.00
43818;BME280;29868;47.360;18.984;2023-05-21T20:12:37;100232.09;;;17.51;100.00
43818;BME280;29868;47.360;18.984;2023-05-21T20:15:03;100233.78;;;17.55;100.00
43818;BME280;29868;47.360;18.984;2023-05-21T20:17:32;100239.28;;;17.40;100.00
43818;BME280;29868;47.360;18.984;2023-05-21T20:20:02;100228.88;;;17.31;100.00
43818;BME280;29868;47.360;18.984;2023-05-21T20:22:35;100229.84;;;17.23;100.00
43818;BME280;29868;47.360;18.984;2023-05-21T20:25:00;100226.44;;;17.18;100.00
43818;BME280;29868;47.360;18.984;2023-05-21T20:27:28;100229.16;;;17.11;100.00
43818;BME280;29868;47.360;18.984;2023-05-21T20:29:53;100232.69;;;17.08;100.00
43818;BME280;29868;47.360;18.984;2023-05-21T20:32:18;100223.19;;;17.01;100.00
43818;BME280;29868;47.360;18.984;2023-05-21T20:34:44;100228.44;;;16.99;100.00
43818;BME280;29868;47.360;18.984;2023-05-21T20:37:12;100231.13;;;16.95;100.00
43818;BME280;29868;47.360;18.984;2023-05-21T20:39:38;100227.63;;;16.93;100.00
43818;BME280;29868;47.360;18.984;2023-05-21T20:42:05;100230.34;;;16.87;100.00
43818;BME280;29868;47.360;18.984;2023-05-21T20:44:35;100230.44;;;16.77;100.00
43818;BME280;29868;47.360;18.984;2023-05-21T20:47:02;100225.25;;;16.74;100.00
43818;BME280;29868;47.360;18.984;2023-05-21T20:49:30;100227.81;;;16.77;100.00
43818;BME280;29868;47.360;18.984;2023-05-21T20:51:58;100231.28;;;16.81;100.00
43818;BME280;29868;47.360;18.984;2023-05-21T20:54:25;100227.09;;;16.62;100.00
43818;BME280;29868;47.360;18.984;2023-05-21T20:56:52;100230.56;;;16.67;100.00
43818;BME280;29868;47.360;18.984;2023-05-21T20:59:19;100226.31;;;16.53;100.00
43818;BME280;29868;47.360;18.984;2023-05-21T21:01:45;100222.88;;;16.48;100.00
43818;BME280;29868;47.360;18.984;2023-05-21T21:04:10;100222.88;;;16.47;100.00
43818;BME280;29868;47.360;18.984;2023-05-21T21:06:35;100215.91;;;16.46;100.00
43818;BME280;29868;47.360;18.984;2023-05-21T21:09:02;100223.88;;;16.38;100.00
43818;BME280;29868;47.360;18.984;2023-05-21T21:11:28;100217.81;;;16.32;100.00
43818;BME280;29868;47.360;18.984;2023-05-21T21:13:54;100223.97;;;16.27;100.00
43818;BME280;29868;47.360;18.984;2023-05-21T21:16:19;100220.53;;;16.21;100.00
43818;BME280;29868;47.360;18.984;2023-05-21T21:18:45;100218.81;;;16.20;100.00
43818;BME280;29868;47.360;18.984;2023-05-21T21:21:11;100219.75;;;16.14;100.00
43818;BME280;29868;47.360;18.984;2023-05-21T21:23:36;100216.28;;;16.09;100.00
43818;BME280;29868;47.360;18.984;2023-05-21T21:26:01;100219.75;;;16.11;100.00
43818;BME280;29868;47.360;18.984;2023-05-21T21:28:27;100223.22;;;16.13;100.00
43818;BME280;29868;47.360;18.984;2023-05-21T21:30:52;100216.31;;;16.04;100.00
43818;BME280;29868;47.360;18.984;2023-05-21T21:33:18;100212.03;;;15.99;100.00
43818;BME280;29868;47.360;18.984;2023-05-21T21:35:43;100212.03;;;15.94;100.00
43818;BME280;29868;47.360;18.984;2023-05-21T21:38:09;100211.19;;;15.92;100.00
43818;BME280;29868;47.360;18.984;2023-05-21T21:40:34;100212.97;;;15.89;100.00
43818;BME280;29868;47.360;18.984;2023-05-21T21:43:00;100227.81;;;15.88;100.00
43818;BME280;29868;47.360;18.984;2023-05-21T21:45:25;100212.13;;;15.85;100.00
43818;BME280;29868;47.360;18.984;2023-05-21T21:47:51;100216.50;;;15.85;100.00
43818;BME280;29868;47.360;18.984;2023-05-21T21:50:16;100220.03;;;15.80;100.00
43818;BME280;29868;47.360;18.984;2023-05-21T21:52:41;100214.78;;;15.84;100.00
43818;BME280;29868;47.360;18.984;2023-05-21T21:55:10;100214.78;;;15.84;100.00
43818;BME280;29868;47.360;18.984;2023-05-21T21:57:37;100211.31;;;15.78;100.00
43818;BME280;29868;47.360;18.984;2023-05-21T22:00:04;100235.41;;;16.17;100.00
43818;BME280;29868;47.360;18.984;2023-05-21T22:02:42;100251.75;;;16.45;100.00
43818;BME280;29868;47.360;18.984;2023-05-21T22:05:07;100251.66;;;16.54;100.00
43818;BME280;29868;47.360;18.984;2023-05-21T22:07:33;100255.84;;;16.75;100.00
43818;BME280;29868;47.360;18.984;2023-05-21T22:09:59;100268.69;;;16.98;100.00
43818;BME280;29868;47.360;18.984;2023-05-21T22:12:25;100276.28;;;17.21;100.00
43818;BME280;29868;47.360;18.984;2023-05-21T22:14:51;100281.50;;;17.23;100.00
43818;BME280;29868;47.360;18.984;2023-05-21T22:17:16;100275.31;;;17.29;100.00
43818;BME280;29868;47.360;18.984;2023-05-21T22:19:43;100271.56;;;17.46;100.00
43818;BME280;29868;47.360;18.984;2023-05-21T22:22:09;100286.34;;;17.52;100.00
43818;BME280;29868;47.360;18.984;2023-05-21T22:24:36;100291.56;;;17.54;100.00
43818;BME280;29868;47.360;18.984;2023-05-21T22:27:02;100283.59;;;17.61;100.00
43818;BME280;29868;47.360;18.984;2023-05-21T22:29:27;100270.41;;;17.64;100.00
43818;BME280;29868;47.360;18.984;2023-05-21T22:31:53;100260.66;;;17.72;100.00
43818;BME280;29868;47.360;18.984;2023-05-21T22:34:18;100259.75;;;17.77;100.00
43818;BME280;29868;47.360;18.984;2023-05-21T22:36:45;100268.34;;;17.88;100.00
43818;BME280;29868;47.360;18.984;2023-05-21T22:39:10;100266.66;;;17.84;100.00
43818;BME280;29868;47.360;18.984;2023-05-21T22:41:36;100265.00;;;17.77;100.00
43818;BME280;29868;47.360;18.984;2023-05-21T22:44:01;100263.16;;;17.85;100.00
43818;BME280;29868;47.360;18.984;2023-05-21T22:46:27;100263.94;;;17.90;100.00
43818;BME280;29868;47.360;18.984;2023-05-21T22:48:52;100272.72;;;17.87;100.00
43818;BME280;29868;47.360;18.984;2023-05-21T22:51:18;100273.44;;;17.98;100.00
43818;BME280;29868;47.360;18.984;2023-05-21T22:53:44;100267.78;;;18.21;100.00
43818;BME280;29868;47.360;18.984;2023-05-21T22:56:09;100260.84;;;18.17;100.00
43818;BME280;29868;47.360;18.984;2023-05-21T22:58:34;100271.13;;;18.31;100.00
43818;BME280;29868;47.360;18.984;2023-05-21T23:01:01;100269.19;;;18.41;100.00
43818;BME280;29868;47.360;18.984;2023-05-21T23:03:26;100265.69;;;18.42;100.00
43818;BME280;29868;47.360;18.984;2023-05-21T23:05:52;100270.94;;;18.42;100.00
43818;BME280;29868;47.360;18.984;2023-05-21T23:08:17;100273.44;;;18.48;100.00
43818;BME280;29868;47.360;18.984;2023-05-21T23:10:43;100260.31;;;18.48;100.00
43818;BME280;29868;47.360;18.984;2023-05-21T23:13:08;100257.00;;;18.37;100.00
43818;BME280;29868;47.360;18.984;2023-05-21T23:15:33;100256.13;;;18.36;100.00
43818;BME280;29868;47.360;18.984;2023-05-21T23:18:03;100258.13;;;18.23;100.00
43818;BME280;29868;47.360;18.984;2023-05-21T23:20:28;100257.41;;;18.14;100.00
43818;BME280;29868;47.360;18.984;2023-05-21T23:22:53;100259.22;;;18.10;100.00
43818;BME280;29868;47.360;18.984;2023-05-21T23:25:19;100256.88;;;17.93;100.00
43818;BME280;29868;47.360;18.984;2023-05-21T23:27:44;100243.16;;;17.71;100.00
43818;BME280;29868;47.360;18.984;2023-05-21T23:30:10;100246.06;;;17.55;100.00
43818;BME280;29868;47.360;18.984;2023-05-21T23:32:36;100244.31;;;17.55;100.00
43818;BME280;29868;47.360;18.984;2023-05-21T23:35:01;100247.94;;;17.45;100.00
43818;BME280;29868;47.360;18.984;2023-05-21T23:37:27;100231.16;;;17.55;100.00
43818;BME280;29868;47.360;18.984;2023-05-21T23:39:52;100231.13;;;17.57;100.00
43818;BME280;29868;47.360;18.984;2023-05-21T23:42:18;100236.56;;;17.44;100.00
43818;BME280;29868;47.360;18.984;2023-05-21T23:44:43;100240.41;;;17.19;100.00
43818;BME280;29868;47.360;18.984;2023-05-21T23:47:09;100246.59;;;17.15;100.00
43818;BME280;29868;47.360;18.984;2023-05-21T23:49:34;100244.06;;;17.09;100.00
43818;BME280;29868;47.360;18.984;2023-05-21T23:52:00;100241.72;;;16.86;100.00
43818;BME280;29868;47.360;18.984;2023-05-21T23:54:25;100247.97;;;16.72;100.00
43818;BME280;29868;47.360;18.984;2023-05-21T23:56:51;100242.81;;;16.65;100.00
43818;BME280;29868;47.360;18.984;2023-05-21T23:59:16;100258.50;;;16.66;100.00
